createdAt,value
2016-10-08T00:00:25.044Z,1007.98
2016-10-08T00:01:25.061Z,1007.93
2016-10-08T00:02:25.081Z,1007.95
2016-10-08T00:03:25.097Z,1007.95
2016-10-08T00:04:25.119Z,1007.97
2016-10-08T00:05:25.139Z,1007.98
2016-10-08T00:06:25.153Z,1007.95
2016-10-08T00:07:25.174Z,1007.99
2016-10-08T00:08:25.190Z,1008.02
2016-10-08T00:09:25.208Z,1008.04
2016-10-08T00:10:25.231Z,1008.04
2016-10-08T00:11:25.251Z,1008.08
2016-10-08T00:12:25.265Z,1008.09
2016-10-08T00:13:25.282Z,1008.07
2016-10-08T00:14:25.299Z,1008.06
2016-10-08T00:15:25.317Z,1008.04
2016-10-08T00:16:25.336Z,1008.04
2016-10-08T00:17:25.354Z,1008.04
2016-10-08T00:18:25.372Z,1008.04
2016-10-08T00:19:25.391Z,1008.04
2016-10-08T00:20:25.410Z,1008.04
2016-10-08T00:21:25.428Z,1008.02
2016-10-08T00:22:25.447Z,1008.03
2016-10-08T00:23:25.466Z,1008.01
2016-10-08T00:24:25.482Z,1008.04
2016-10-08T00:25:25.503Z,1008.03
2016-10-08T00:26:25.521Z,1008.02
2016-10-08T00:27:25.541Z,1008.03
2016-10-08T00:28:25.557Z,1008.03
2016-10-08T00:29:25.576Z,1008.01
2016-10-08T00:30:25.594Z,1008.02
2016-10-08T00:31:25.612Z,1008.03
2016-10-08T00:32:25.631Z,1008.04
2016-10-08T00:33:25.650Z,1007.99
2016-10-08T00:34:25.668Z,1008
2016-10-08T00:35:25.687Z,1007.96
2016-10-08T00:36:25.704Z,1007.95
2016-10-08T00:37:25.723Z,1007.99
2016-10-08T00:38:25.741Z,1007.9
2016-10-08T00:39:25.760Z,1007.92
2016-10-08T00:40:25.779Z,1007.94
2016-10-08T00:41:25.798Z,1007.91
2016-10-08T00:42:25.820Z,1007.93
2016-10-08T00:43:25.834Z,1007.9
2016-10-08T00:44:25.852Z,1007.9
2016-10-08T00:45:25.878Z,1007.91
2016-10-08T00:46:25.888Z,1007.9
2016-10-08T00:47:25.906Z,1007.9
2016-10-08T00:48:25.925Z,1007.93
2016-10-08T00:49:25.943Z,1007.91
2016-10-08T00:50:25.965Z,1007.92
2016-10-08T00:51:25.986Z,1007.91
2016-10-08T00:52:26.000Z,1007.91
2016-10-08T00:53:26.016Z,1007.91
2016-10-08T00:54:26.036Z,1007.9
2016-10-08T00:55:26.054Z,1007.92
2016-10-08T00:56:26.072Z,1007.86
2016-10-08T00:57:26.089Z,1007.88
2016-10-08T00:58:26.111Z,1007.88
2016-10-08T00:59:26.126Z,1007.86
2016-10-08T01:00:26.144Z,1007.92
2016-10-08T01:01:26.195Z,1007.87
2016-10-08T01:02:26.181Z,1007.87
2016-10-08T01:03:26.199Z,1007.88
2016-10-08T01:04:26.217Z,1007.85
2016-10-08T01:05:26.235Z,1007.86
2016-10-08T01:06:26.255Z,1007.85
2016-10-08T01:07:26.272Z,1007.87
2016-10-08T01:08:26.290Z,1007.85
2016-10-08T01:09:26.308Z,1007.91
2016-10-08T01:10:26.327Z,1007.9
2016-10-08T01:11:26.344Z,1007.87
2016-10-08T01:12:26.362Z,1007.89
2016-10-08T01:13:26.380Z,1007.87
2016-10-08T01:14:26.399Z,1007.85
2016-10-08T01:15:26.416Z,1007.86
2016-10-08T01:16:26.435Z,1007.88
2016-10-08T01:17:26.453Z,1007.93
2016-10-08T01:18:26.472Z,1007.89
2016-10-08T01:19:26.489Z,1007.89
2016-10-08T01:20:26.507Z,1007.89
2016-10-08T01:21:26.526Z,1007.88
2016-10-08T01:22:26.546Z,1007.86
2016-10-08T01:23:26.562Z,1007.88
2016-10-08T01:24:26.580Z,1007.85
2016-10-08T01:25:26.599Z,1007.86
2016-10-08T01:26:26.615Z,1007.83
2016-10-08T01:27:26.634Z,1007.82
2016-10-08T01:28:26.653Z,1007.83
2016-10-08T01:29:26.670Z,1007.83
2016-10-08T01:30:26.688Z,1007.82
2016-10-08T01:31:26.706Z,1007.82
2016-10-08T01:32:26.724Z,1007.82
2016-10-08T01:33:26.743Z,1007.83
2016-10-08T01:34:26.764Z,1007.82
2016-10-08T01:35:26.778Z,1007.77
2016-10-08T01:36:26.796Z,1007.72
2016-10-08T01:37:26.815Z,1007.7
2016-10-08T01:38:26.833Z,1007.73
2016-10-08T01:39:26.851Z,1007.72
2016-10-08T01:40:26.870Z,1007.73
2016-10-08T01:41:26.885Z,1007.72
2016-10-08T01:42:26.904Z,1007.73
2016-10-08T01:43:26.922Z,1007.69
2016-10-08T01:44:26.941Z,1007.66
2016-10-08T01:45:26.958Z,1007.7
2016-10-08T01:46:26.975Z,1007.73
2016-10-08T01:47:26.995Z,1007.68
2016-10-08T01:48:27.011Z,1007.66
2016-10-08T01:49:27.029Z,1007.71
2016-10-08T01:50:27.048Z,1007.68
2016-10-08T01:51:27.066Z,1007.64
2016-10-08T01:52:27.084Z,1007.66
2016-10-08T01:53:27.101Z,1007.63
2016-10-08T01:54:27.119Z,1007.66
2016-10-08T01:55:27.148Z,1007.65
2016-10-08T01:56:27.155Z,1007.61
2016-10-08T01:57:27.174Z,1007.61
2016-10-08T01:58:27.190Z,1007.57
2016-10-08T01:59:27.208Z,1007.59
2016-10-08T02:00:27.226Z,1007.57
2016-10-08T02:01:27.247Z,1007.59
2016-10-08T02:02:27.262Z,1007.61
2016-10-08T02:03:27.279Z,1007.6
2016-10-08T02:04:27.299Z,1007.63
2016-10-08T02:05:27.316Z,1007.66
2016-10-08T02:06:27.333Z,1007.63
2016-10-08T02:07:27.352Z,1007.64
2016-10-08T02:08:27.369Z,1007.64
2016-10-08T02:09:27.387Z,1007.6
2016-10-08T02:10:27.403Z,1007.59
2016-10-08T02:11:27.422Z,1007.6
2016-10-08T02:12:27.443Z,1007.56
2016-10-08T02:13:27.458Z,1007.58
2016-10-08T02:14:27.476Z,1007.63
2016-10-08T02:15:27.495Z,1007.62
2016-10-08T02:16:27.517Z,1007.68
2016-10-08T02:17:27.529Z,1007.66
2016-10-08T02:18:27.548Z,1007.63
2016-10-08T02:19:27.565Z,1007.65
2016-10-08T02:20:27.584Z,1007.63
2016-10-08T02:21:27.601Z,1007.64
2016-10-08T02:22:27.619Z,1007.68
2016-10-08T02:23:27.637Z,1007.6
2016-10-08T02:24:27.654Z,1007.62
2016-10-08T02:25:27.673Z,1007.6
2016-10-08T02:26:27.689Z,1007.58
2016-10-08T02:27:27.709Z,1007.58
2016-10-08T02:28:27.727Z,1007.59
2016-10-08T02:29:27.745Z,1007.59
2016-10-08T02:30:27.761Z,1007.6
2016-10-08T02:31:27.779Z,1007.57
2016-10-08T02:32:27.797Z,1007.58
2016-10-08T02:33:27.816Z,1007.61
2016-10-08T02:34:27.832Z,1007.59
2016-10-08T02:35:27.849Z,1007.59
2016-10-08T02:36:27.868Z,1007.59
2016-10-08T02:37:27.885Z,1007.58
2016-10-08T02:38:27.906Z,1007.58
2016-10-08T02:39:27.921Z,1007.56
2016-10-08T02:40:27.938Z,1007.56
2016-10-08T02:41:27.957Z,1007.59
2016-10-08T02:42:27.974Z,1007.6
2016-10-08T02:43:27.991Z,1007.55
2016-10-08T02:44:28.008Z,1007.57
2016-10-08T02:45:28.028Z,1007.55
2016-10-08T02:46:28.044Z,1007.56
2016-10-08T02:47:28.062Z,1007.52
2016-10-08T02:48:28.079Z,1007.57
2016-10-08T02:49:28.098Z,1007.5
2016-10-08T02:50:28.118Z,1007.58
2016-10-08T02:51:28.133Z,1007.53
2016-10-08T02:52:28.150Z,1007.52
2016-10-08T02:53:28.169Z,1007.49
2016-10-08T02:54:28.186Z,1007.57
2016-10-08T02:55:28.204Z,1007.46
2016-10-08T02:56:28.220Z,1007.48
2016-10-08T02:57:28.238Z,1007.47
2016-10-08T02:58:28.260Z,1007.48
2016-10-08T02:59:28.273Z,1007.43
2016-10-08T03:00:28.291Z,1007.47
2016-10-08T03:01:28.307Z,1007.46
2016-10-08T03:02:28.326Z,1007.46
2016-10-08T03:03:28.346Z,1007.48
2016-10-08T03:04:28.361Z,1007.5
2016-10-08T03:05:28.378Z,1007.49
2016-10-08T03:06:28.396Z,1007.49
2016-10-08T03:07:28.414Z,1007.45
2016-10-08T03:08:28.430Z,1007.47
2016-10-08T03:09:28.463Z,1007.49
2016-10-08T03:10:28.466Z,1007.5
2016-10-08T03:11:28.484Z,1007.47
2016-10-08T03:12:28.501Z,1007.5
2016-10-08T03:13:28.518Z,1007.53
2016-10-08T03:14:28.536Z,1007.5
2016-10-08T03:15:28.559Z,1007.53
2016-10-08T03:16:28.571Z,1007.51
2016-10-08T03:17:28.590Z,1007.51
2016-10-08T03:18:28.607Z,1007.49
2016-10-08T03:19:28.624Z,1007.5
2016-10-08T03:20:28.641Z,1007.51
2016-10-08T03:21:28.659Z,1007.47
2016-10-08T03:22:28.677Z,1007.52
2016-10-08T03:23:28.694Z,1007.48
2016-10-08T03:24:28.712Z,1007.47
2016-10-08T03:25:28.730Z,1007.5
2016-10-08T03:26:28.747Z,1007.49
2016-10-08T03:27:28.764Z,1007.55
2016-10-08T03:28:28.783Z,1007.52
2016-10-08T03:29:28.804Z,1007.52
2016-10-08T03:30:28.817Z,1007.51
2016-10-08T03:31:28.835Z,1007.53
2016-10-08T03:32:28.852Z,1007.5
2016-10-08T03:33:28.870Z,1007.52
2016-10-08T03:34:28.888Z,1007.5
2016-10-08T03:35:28.905Z,1007.52
2016-10-08T03:36:28.923Z,1007.55
2016-10-08T03:37:28.940Z,1007.58
2016-10-08T03:38:28.958Z,1007.58
2016-10-08T03:39:28.979Z,1007.55
2016-10-08T03:40:29.013Z,1007.55
2016-10-08T03:41:29.009Z,1007.56
2016-10-08T03:42:29.027Z,1007.53
2016-10-08T03:43:29.045Z,1007.55
2016-10-08T03:44:29.063Z,1007.56
2016-10-08T03:45:29.079Z,1007.53
2016-10-08T03:46:29.198Z,1007.57
2016-10-08T03:47:29.115Z,1007.58
2016-10-08T03:48:29.133Z,1007.58
2016-10-08T03:49:29.151Z,1007.55
2016-10-08T03:50:29.168Z,1007.53
2016-10-08T03:51:29.193Z,1007.55
2016-10-08T03:52:29.209Z,1007.51
2016-10-08T03:53:29.221Z,1007.5
2016-10-08T03:54:29.239Z,1007.49
2016-10-08T03:55:29.257Z,1007.49
2016-10-08T03:56:29.273Z,1007.45
2016-10-08T03:57:29.290Z,1007.47
2016-10-08T03:58:29.316Z,1007.47
2016-10-08T03:59:29.325Z,1007.51
2016-10-08T04:00:29.344Z,1007.51
2016-10-08T04:01:29.362Z,1007.5
2016-10-08T04:02:29.381Z,1007.51
2016-10-08T04:03:29.394Z,1007.51
2016-10-08T04:04:29.414Z,1007.54
2016-10-08T04:05:29.430Z,1007.55
2016-10-08T04:06:29.447Z,1007.51
2016-10-08T04:07:29.464Z,1007.57
2016-10-08T04:08:29.482Z,1007.56
2016-10-08T04:09:29.500Z,1007.53
2016-10-08T04:10:29.517Z,1007.55
2016-10-08T04:11:29.534Z,1007.55
2016-10-08T04:12:29.557Z,1007.58
2016-10-08T04:13:29.571Z,1007.55
2016-10-08T04:14:29.587Z,1007.52
2016-10-08T04:15:29.604Z,1007.53
2016-10-08T04:16:29.621Z,1007.48
2016-10-08T04:17:29.638Z,1007.51
2016-10-08T04:18:29.655Z,1007.49
2016-10-08T04:19:29.697Z,1007.51
2016-10-08T04:20:29.692Z,1007.49
2016-10-08T04:21:29.708Z,1007.47
2016-10-08T04:22:29.725Z,1007.46
2016-10-08T04:23:29.748Z,1007.49
2016-10-08T04:24:29.762Z,1007.49
2016-10-08T04:25:29.778Z,1007.48
2016-10-08T04:26:29.795Z,1007.52
2016-10-08T04:27:29.813Z,1007.46
2016-10-08T04:28:29.832Z,1007.51
2016-10-08T04:29:29.851Z,1007.53
2016-10-08T04:30:29.867Z,1007.51
2016-10-08T04:31:29.883Z,1007.48
2016-10-08T04:32:29.901Z,1007.45
2016-10-08T04:33:29.918Z,1007.44
2016-10-08T04:34:29.935Z,1007.44
2016-10-08T04:35:29.952Z,1007.45
2016-10-08T04:36:29.970Z,1007.43
2016-10-08T04:37:29.987Z,1007.47
2016-10-08T04:38:30.005Z,1007.5
2016-10-08T04:39:30.022Z,1007.53
2016-10-08T04:40:30.042Z,1007.53
2016-10-08T04:41:30.057Z,1007.51
2016-10-08T04:42:30.075Z,1007.5
2016-10-08T04:43:30.092Z,1007.54
2016-10-08T04:44:30.110Z,1007.46
2016-10-08T04:45:30.127Z,1007.48
2016-10-08T04:46:30.145Z,1007.46
2016-10-08T04:47:30.162Z,1007.44
2016-10-08T04:48:30.180Z,1007.44
2016-10-08T04:49:30.197Z,1007.45
2016-10-08T04:50:30.215Z,1007.46
2016-10-08T04:51:30.232Z,1007.5
2016-10-08T04:52:30.250Z,1007.45
2016-10-08T04:53:30.268Z,1007.48
2016-10-08T04:54:30.289Z,1007.5
2016-10-08T04:55:30.302Z,1007.51
2016-10-08T04:56:30.320Z,1007.52
2016-10-08T04:57:30.338Z,1007.52
2016-10-08T04:58:30.354Z,1007.54
2016-10-08T04:59:30.373Z,1007.55
2016-10-08T05:00:30.389Z,1007.56
2016-10-08T05:01:30.407Z,1007.6
2016-10-08T05:02:30.424Z,1007.63
2016-10-08T05:03:30.441Z,1007.67
2016-10-08T05:04:30.459Z,1007.7
2016-10-08T05:05:30.476Z,1007.68
2016-10-08T05:06:30.494Z,1007.68
2016-10-08T05:07:30.511Z,1007.67
2016-10-08T05:08:30.528Z,1007.7
2016-10-08T05:09:30.545Z,1007.73
2016-10-08T05:10:30.564Z,1007.73
2016-10-08T05:11:30.583Z,1007.74
2016-10-08T05:12:30.599Z,1007.75
2016-10-08T05:13:30.617Z,1007.74
2016-10-08T05:14:30.633Z,1007.76
2016-10-08T05:15:30.652Z,1007.75
2016-10-08T05:16:30.667Z,1007.74
2016-10-08T05:17:30.685Z,1007.74
2016-10-08T05:18:30.703Z,1007.74
2016-10-08T05:19:30.721Z,1007.74
2016-10-08T05:20:30.737Z,1007.78
2016-10-08T05:21:30.755Z,1007.72
2016-10-08T05:22:30.772Z,1007.76
2016-10-08T05:23:30.790Z,1007.76
2016-10-08T05:24:30.817Z,1007.77
2016-10-08T05:25:30.835Z,1007.75
2016-10-08T05:26:30.844Z,1007.73
2016-10-08T05:27:30.861Z,1007.75
2016-10-08T05:28:30.882Z,1007.69
2016-10-08T05:29:30.897Z,1007.6
2016-10-08T05:30:30.913Z,1007.61
2016-10-08T05:31:30.930Z,1007.62
2016-10-08T05:32:30.948Z,1007.58
2016-10-08T05:33:30.966Z,1007.57
2016-10-08T05:34:30.982Z,1007.58
2016-10-08T05:35:31.000Z,1007.65
2016-10-08T05:36:31.017Z,1007.65
2016-10-08T05:37:31.035Z,1007.61
2016-10-08T05:38:31.052Z,1007.62
2016-10-08T05:39:31.070Z,1007.64
2016-10-08T05:40:31.088Z,1007.63
2016-10-08T05:41:31.106Z,1007.63
2016-10-08T05:42:31.121Z,1007.65
2016-10-08T05:43:31.140Z,1007.59
2016-10-08T05:44:31.157Z,1007.59
2016-10-08T05:45:31.173Z,1007.58
2016-10-08T05:46:31.191Z,1007.59
2016-10-08T05:47:31.209Z,1007.57
2016-10-08T05:48:31.227Z,1007.59
2016-10-08T05:49:31.243Z,1007.58
2016-10-08T05:50:31.270Z,1007.58
2016-10-08T05:51:31.279Z,1007.57
2016-10-08T05:52:31.296Z,1007.58
2016-10-08T05:53:31.313Z,1007.53
2016-10-08T05:54:31.330Z,1007.53
2016-10-08T05:55:31.348Z,1007.53
2016-10-08T05:56:31.365Z,1007.56
2016-10-08T05:57:31.382Z,1007.57
2016-10-08T05:58:31.400Z,1007.58
2016-10-08T05:59:31.421Z,1007.6
2016-10-08T06:00:31.436Z,1007.6
2016-10-08T06:01:31.452Z,1007.6
2016-10-08T06:02:31.469Z,1007.66
2016-10-08T06:03:31.488Z,1007.61
2016-10-08T06:04:31.504Z,1007.66
2016-10-08T06:05:31.521Z,1007.68
2016-10-08T06:06:31.539Z,1007.68
2016-10-08T06:07:31.556Z,1007.66
2016-10-08T06:08:31.575Z,1007.69
2016-10-08T06:09:31.592Z,1007.7
2016-10-08T06:10:31.609Z,1007.72
2016-10-08T06:11:31.625Z,1007.73
2016-10-08T06:12:31.643Z,1007.74
2016-10-08T06:13:31.660Z,1007.75
2016-10-08T06:14:31.678Z,1007.74
2016-10-08T06:15:31.695Z,1007.73
2016-10-08T06:16:31.712Z,1007.74
2016-10-08T06:17:31.730Z,1007.73
2016-10-08T06:18:31.747Z,1007.71
2016-10-08T06:19:31.764Z,1007.72
2016-10-08T06:20:31.783Z,1007.77
2016-10-08T06:21:31.800Z,1007.75
2016-10-08T06:22:31.816Z,1007.74
2016-10-08T06:23:31.834Z,1007.76
2016-10-08T06:24:31.852Z,1007.77
2016-10-08T06:25:31.869Z,1007.75
2016-10-08T06:26:31.885Z,1007.76
2016-10-08T06:27:31.903Z,1007.75
2016-10-08T06:28:31.920Z,1007.78
2016-10-08T06:29:31.939Z,1007.83
2016-10-08T06:30:31.956Z,1007.82
2016-10-08T06:31:31.986Z,1007.82
2016-10-08T06:32:31.990Z,1007.83
2016-10-08T06:33:32.007Z,1007.85
2016-10-08T06:34:32.026Z,1007.82
2016-10-08T06:35:32.042Z,1007.83
2016-10-08T06:36:32.060Z,1007.8
2016-10-08T06:37:32.075Z,1007.83
2016-10-08T06:38:32.094Z,1007.79
2016-10-08T06:39:32.111Z,1007.81
2016-10-08T06:40:32.128Z,1007.8
2016-10-08T06:41:32.145Z,1007.75
2016-10-08T06:42:32.163Z,1007.75
2016-10-08T06:43:32.180Z,1007.75
2016-10-08T06:44:32.196Z,1007.76
2016-10-08T06:45:32.214Z,1007.76
2016-10-08T06:46:32.232Z,1007.77
2016-10-08T06:47:32.250Z,1007.79
2016-10-08T06:48:32.266Z,1007.81
2016-10-08T06:49:32.283Z,1007.84
2016-10-08T06:50:32.301Z,1007.82
2016-10-08T06:51:32.318Z,1007.82
2016-10-08T06:52:32.335Z,1007.83
2016-10-08T06:53:32.354Z,1007.8
2016-10-08T06:54:32.372Z,1007.85
2016-10-08T06:55:32.386Z,1007.83
2016-10-08T06:56:32.405Z,1007.83
2016-10-08T06:57:32.421Z,1007.81
2016-10-08T06:58:32.440Z,1007.84
2016-10-08T06:59:32.457Z,1007.88
2016-10-08T07:00:32.474Z,1007.86
2016-10-08T07:01:32.493Z,1007.88
2016-10-08T07:02:32.508Z,1007.87
2016-10-08T07:03:32.525Z,1007.87
2016-10-08T07:04:32.544Z,1007.89
2016-10-08T07:05:32.565Z,1007.92
2016-10-08T07:06:32.583Z,1007.9
2016-10-08T07:07:32.595Z,1007.85
2016-10-08T07:08:32.613Z,1007.86
2016-10-08T07:09:32.630Z,1007.84
2016-10-08T07:10:32.647Z,1007.82
2016-10-08T07:11:32.664Z,1007.89
2016-10-08T07:12:32.682Z,1007.9
2016-10-08T07:13:32.699Z,1007.9
2016-10-08T07:14:32.716Z,1007.91
2016-10-08T07:15:32.734Z,1007.86
2016-10-08T07:16:32.751Z,1007.87
2016-10-08T07:17:32.768Z,1007.83
2016-10-08T07:18:32.785Z,1007.87
2016-10-08T07:19:32.806Z,1007.87
2016-10-08T07:20:32.819Z,1007.9
2016-10-08T07:21:32.838Z,1007.9
2016-10-08T07:22:32.854Z,1007.91
2016-10-08T07:23:32.872Z,1007.9
2016-10-08T07:24:32.888Z,1007.92
2016-10-08T07:25:32.907Z,1007.91
2016-10-08T07:26:32.923Z,1007.93
2016-10-08T07:27:32.942Z,1007.88
2016-10-08T07:28:32.958Z,1007.86
2016-10-08T07:29:32.975Z,1007.89
2016-10-08T07:30:32.992Z,1007.89
2016-10-08T07:31:33.010Z,1007.86
2016-10-08T07:32:33.027Z,1007.88
2016-10-08T07:33:33.051Z,1007.91
2016-10-08T07:34:33.063Z,1007.89
2016-10-08T07:35:33.080Z,1007.92
2016-10-08T07:36:33.096Z,1007.9
2016-10-08T07:37:33.114Z,1007.91
2016-10-08T07:38:33.132Z,1007.88
2016-10-08T07:39:33.150Z,1007.97
2016-10-08T07:40:33.166Z,1007.94
2016-10-08T07:41:33.183Z,1007.92
2016-10-08T07:42:33.204Z,1007.95
2016-10-08T07:43:33.223Z,1007.95
2016-10-08T07:44:33.235Z,1007.94
2016-10-08T07:45:33.252Z,1007.98
2016-10-08T07:46:33.269Z,1007.96
2016-10-08T07:47:33.286Z,1007.97
2016-10-08T07:48:33.305Z,1007.97
2016-10-08T07:49:33.322Z,1008
2016-10-08T07:50:33.339Z,1007.96
2016-10-08T07:51:33.356Z,1007.98
2016-10-08T07:52:33.374Z,1007.98
2016-10-08T07:53:33.391Z,1007.98
2016-10-08T07:54:33.408Z,1008.01
2016-10-08T07:55:33.426Z,1008.02
2016-10-08T07:56:33.444Z,1008.05
2016-10-08T07:57:33.467Z,1008.06
2016-10-08T07:58:33.481Z,1008.09
2016-10-08T07:59:33.497Z,1008.06
2016-10-08T08:00:33.515Z,1008.1
2016-10-08T08:01:33.547Z,1008.11
2016-10-08T08:02:33.549Z,1008.1
2016-10-08T08:03:33.567Z,1008.13
2016-10-08T08:04:33.584Z,1008.09
2016-10-08T08:05:33.601Z,1008.09
2016-10-08T08:06:33.618Z,1008.1
2016-10-08T08:07:33.636Z,1008.1
2016-10-08T08:08:33.653Z,1008.09
2016-10-08T08:09:33.671Z,1008.07
2016-10-08T08:10:33.689Z,1008.07
2016-10-08T08:11:33.707Z,1008.12
2016-10-08T08:12:33.723Z,1008.1
2016-10-08T08:13:33.741Z,1008.07
2016-10-08T08:14:33.759Z,1008.03
2016-10-08T08:15:33.775Z,1008.05
2016-10-08T08:16:33.793Z,1008.04
2016-10-08T08:17:33.811Z,1008.06
2016-10-08T08:18:33.830Z,1008.07
2016-10-08T08:19:33.845Z,1008.08
2016-10-08T08:20:33.865Z,1008.08
2016-10-08T08:21:33.883Z,1008.1
2016-10-08T08:22:33.899Z,1008.15
2016-10-08T08:23:33.915Z,1008.13
2016-10-08T08:24:33.933Z,1008.13
2016-10-08T08:25:33.952Z,1008.13
2016-10-08T08:26:33.968Z,1008.17
2016-10-08T08:27:33.986Z,1008.11
2016-10-08T08:28:34.005Z,1008.19
2016-10-08T08:29:34.022Z,1008.16
2016-10-08T08:30:34.038Z,1008.23
2016-10-08T08:31:34.056Z,1008.18
2016-10-08T08:32:34.074Z,1008.19
2016-10-08T08:33:34.093Z,1008.18
2016-10-08T08:34:34.110Z,1008.23
2016-10-08T08:35:34.127Z,1008.24
2016-10-08T08:36:34.147Z,1008.24
2016-10-08T08:37:34.165Z,1008.26
2016-10-08T08:38:34.180Z,1008.28
2016-10-08T08:39:34.198Z,1008.25
2016-10-08T08:40:34.216Z,1008.25
2016-10-08T08:41:34.233Z,1008.3
2016-10-08T08:42:34.251Z,1008.29
2016-10-08T08:43:34.268Z,1008.33
2016-10-08T08:44:34.285Z,1008.33
2016-10-08T08:45:34.304Z,1008.34
2016-10-08T08:46:34.321Z,1008.36
2016-10-08T08:47:34.339Z,1008.36
2016-10-08T08:48:34.357Z,1008.37
2016-10-08T08:49:34.374Z,1008.38
2016-10-08T08:50:34.393Z,1008.4
2016-10-08T08:51:34.412Z,1008.42
2016-10-08T08:52:34.427Z,1008.41
2016-10-08T08:53:34.448Z,1008.43
2016-10-08T08:54:34.466Z,1008.41
2016-10-08T08:55:34.481Z,1008.44
2016-10-08T08:56:34.500Z,1008.5
2016-10-08T08:57:34.516Z,1008.46
2016-10-08T08:58:34.535Z,1008.45
2016-10-08T08:59:34.551Z,1008.45
2016-10-08T09:00:34.569Z,1008.45
2016-10-08T09:01:34.639Z,1008.53
2016-10-08T09:02:34.606Z,1008.48
2016-10-08T09:03:34.622Z,1008.52
2016-10-08T09:04:34.641Z,1008.5
2016-10-08T09:05:34.658Z,1008.5
2016-10-08T09:06:34.691Z,1008.5
2016-10-08T09:07:34.694Z,1008.5
2016-10-08T09:08:34.712Z,1008.5
2016-10-08T09:09:34.730Z,1008.52
2016-10-08T09:10:34.747Z,1008.54
2016-10-08T09:11:34.765Z,1008.52
2016-10-08T09:12:34.784Z,1008.56
2016-10-08T09:13:34.801Z,1008.54
2016-10-08T09:14:34.818Z,1008.56
2016-10-08T09:15:34.836Z,1008.52
2016-10-08T09:16:34.857Z,1008.51
2016-10-08T09:17:34.872Z,1008.57
2016-10-08T09:18:34.890Z,1008.53
2016-10-08T09:19:34.909Z,1008.51
2016-10-08T09:20:34.926Z,1008.52
2016-10-08T09:21:34.943Z,1008.56
2016-10-08T09:22:34.964Z,1008.5
2016-10-08T09:23:34.981Z,1008.53
2016-10-08T09:24:34.999Z,1008.53
2016-10-08T09:25:35.017Z,1008.55
2016-10-08T09:26:35.035Z,1008.51
2016-10-08T09:27:35.054Z,1008.55
2016-10-08T09:28:35.072Z,1008.53
2016-10-08T09:29:35.090Z,1008.53
2016-10-08T09:30:35.109Z,1008.53
2016-10-08T09:31:35.128Z,1008.54
2016-10-08T09:32:35.144Z,1008.5
2016-10-08T09:33:35.164Z,1008.52
2016-10-08T09:34:35.181Z,1008.54
2016-10-08T09:35:35.200Z,1008.59
2016-10-08T09:36:35.219Z,1008.58
2016-10-08T09:37:35.237Z,1008.6
2016-10-08T09:38:35.256Z,1008.62
2016-10-08T09:39:35.274Z,1008.6
2016-10-08T09:40:35.292Z,1008.61
2016-10-08T09:41:35.311Z,1008.62
2016-10-08T09:42:35.329Z,1008.63
2016-10-08T09:43:35.347Z,1008.68
2016-10-08T09:44:35.365Z,1008.67
2016-10-08T09:45:35.384Z,1008.65
2016-10-08T09:46:35.403Z,1008.68
2016-10-08T09:47:35.421Z,1008.65
2016-10-08T09:48:35.439Z,1008.71
2016-10-08T09:49:35.458Z,1008.71
2016-10-08T09:50:35.478Z,1008.78
2016-10-08T09:51:35.495Z,1008.74
2016-10-08T09:52:35.513Z,1008.75
2016-10-08T09:53:35.533Z,1008.73
2016-10-08T09:54:35.550Z,1008.75
2016-10-08T09:55:35.569Z,1008.75
2016-10-08T09:56:35.590Z,1008.72
2016-10-08T09:57:35.607Z,1008.72
2016-10-08T09:58:35.625Z,1008.7
2016-10-08T09:59:35.644Z,1008.73
2016-10-08T10:00:35.664Z,1008.75
2016-10-08T10:01:35.681Z,1008.69
2016-10-08T10:02:35.700Z,1008.74
2016-10-08T10:03:35.719Z,1008.72
2016-10-08T10:04:35.740Z,1008.76
2016-10-08T10:05:35.756Z,1008.71
2016-10-08T10:06:35.775Z,1008.74
2016-10-08T10:07:35.795Z,1008.77
2016-10-08T10:08:35.814Z,1008.79
2016-10-08T10:09:35.834Z,1008.78
2016-10-08T10:10:35.853Z,1008.78
2016-10-08T10:11:35.872Z,1008.82
2016-10-08T10:12:35.891Z,1008.81
2016-10-08T10:13:35.909Z,1008.75
2016-10-08T10:14:35.928Z,1008.74
2016-10-08T10:15:35.949Z,1008.78
2016-10-08T10:16:35.967Z,1008.78
2016-10-08T10:17:35.985Z,1008.81
2016-10-08T10:18:36.005Z,1008.78
2016-10-08T10:19:36.023Z,1008.79
2016-10-08T10:20:36.045Z,1008.82
2016-10-08T10:21:36.062Z,1008.81
2016-10-08T10:22:36.081Z,1008.79
2016-10-08T10:23:36.100Z,1008.82
2016-10-08T10:24:36.119Z,1008.8
2016-10-08T10:25:36.139Z,1008.81
2016-10-08T10:26:36.158Z,1008.8
2016-10-08T10:27:36.177Z,1008.83
2016-10-08T10:28:36.196Z,1008.84
2016-10-08T10:29:36.217Z,1008.84
2016-10-08T10:30:36.234Z,1008.84
2016-10-08T10:31:36.254Z,1008.82
2016-10-08T10:32:36.273Z,1008.81
2016-10-08T10:33:36.292Z,1008.87
2016-10-08T10:34:36.311Z,1008.84
2016-10-08T10:35:36.330Z,1008.84
2016-10-08T10:36:36.350Z,1008.82
2016-10-08T10:37:36.370Z,1008.84
2016-10-08T10:38:36.389Z,1008.92
2016-10-08T10:39:36.408Z,1008.86
2016-10-08T10:40:36.427Z,1008.92
2016-10-08T10:41:36.446Z,1008.9
2016-10-08T10:42:36.466Z,1008.95
2016-10-08T10:43:36.486Z,1008.93
2016-10-08T10:44:36.506Z,1008.88
2016-10-08T10:45:36.523Z,1008.93
2016-10-08T10:46:36.544Z,1008.89
2016-10-08T10:47:36.562Z,1008.86
2016-10-08T10:48:36.583Z,1008.91
2016-10-08T10:49:36.601Z,1008.91
2016-10-08T10:50:36.622Z,1008.88
2016-10-08T10:51:36.848Z,1008.92
2016-10-08T10:52:36.697Z,1008.92
2016-10-08T10:53:36.755Z,1008.89
2016-10-08T10:54:36.765Z,1008.88
2016-10-08T10:55:36.774Z,1008.92
2016-10-08T10:56:36.937Z,1008.9
2016-10-08T10:57:36.782Z,1008.89
2016-10-08T10:58:36.791Z,1008.86
2016-10-08T10:59:36.800Z,1008.94
2016-10-08T11:00:36.816Z,1008.91
2016-10-08T11:01:36.836Z,1008.92
2016-10-08T11:02:36.855Z,1008.88
2016-10-08T11:03:36.874Z,1008.91
2016-10-08T11:04:36.894Z,1008.93
2016-10-08T11:05:36.913Z,1008.89
2016-10-08T11:06:36.934Z,1008.9
2016-10-08T11:07:36.953Z,1008.92
2016-10-08T11:08:36.973Z,1008.91
2016-10-08T11:09:36.995Z,1008.94
2016-10-08T11:10:37.015Z,1008.91
2016-10-08T11:11:37.032Z,1008.96
2016-10-08T11:12:37.051Z,1008.92
2016-10-08T11:13:37.071Z,1008.92
2016-10-08T11:14:37.091Z,1008.91
2016-10-08T11:15:37.111Z,1008.92
2016-10-08T11:16:37.130Z,1008.91
2016-10-08T11:17:37.150Z,1008.9
2016-10-08T11:18:37.169Z,1008.95
2016-10-08T11:19:37.190Z,1008.92
2016-10-08T11:20:37.210Z,1008.91
2016-10-08T11:21:37.230Z,1008.91
2016-10-08T11:22:37.248Z,1008.93
2016-10-08T11:23:37.269Z,1008.93
2016-10-08T11:24:37.288Z,1008.96
2016-10-08T11:25:37.307Z,1008.99
2016-10-08T11:26:37.327Z,1008.97
2016-10-08T11:27:37.348Z,1009
2016-10-08T11:28:37.368Z,1008.97
2016-10-08T11:29:37.386Z,1009.01
2016-10-08T11:30:37.406Z,1009.02
2016-10-08T11:31:37.427Z,1009.02
2016-10-08T11:32:37.446Z,1009.05
2016-10-08T11:33:37.465Z,1009.06
2016-10-08T11:34:37.487Z,1009.06
2016-10-08T11:35:37.506Z,1009.01
2016-10-08T11:36:37.525Z,1009.07
2016-10-08T11:37:37.544Z,1009.08
2016-10-08T11:38:37.564Z,1009.09
2016-10-08T11:39:37.585Z,1009.12
2016-10-08T11:40:37.603Z,1009.13
2016-10-08T11:41:37.623Z,1009.13
2016-10-08T11:42:37.643Z,1009.11
2016-10-08T11:43:37.664Z,1009.15
2016-10-08T11:44:37.684Z,1009.11
2016-10-08T11:45:37.704Z,1009.13
2016-10-08T11:46:37.723Z,1009.07
2016-10-08T11:47:37.743Z,1009.09
2016-10-08T11:48:37.762Z,1009.09
2016-10-08T11:49:37.783Z,1009.11
2016-10-08T11:50:37.802Z,1009.09
2016-10-08T11:51:37.822Z,1009.11
2016-10-08T11:52:37.841Z,1009.12
2016-10-08T11:53:37.861Z,1009.06
2016-10-08T11:54:37.880Z,1009.11
2016-10-08T11:55:37.900Z,1009.09
2016-10-08T11:56:37.921Z,1009.11
2016-10-08T11:57:37.940Z,1009.09
2016-10-08T11:58:37.960Z,1009.07
2016-10-08T11:59:37.980Z,1009.08
2016-10-08T12:00:38.000Z,1009.08
2016-10-08T12:01:38.021Z,1009.08
2016-10-08T12:02:38.039Z,1009.06
2016-10-08T12:03:38.058Z,1009.1
2016-10-08T12:04:38.079Z,1009.1
2016-10-08T12:05:38.097Z,1009.13
2016-10-08T12:06:38.117Z,1009.12
2016-10-08T12:07:38.137Z,1009.13
2016-10-08T12:08:38.157Z,1009.09